createdAt,value
2019-05-12T00:00:01.066Z,99.99
2019-05-12T00:01:01.170Z,99.99
2019-05-12T00:02:01.255Z,99.99
2019-05-12T00:03:01.351Z,99.99
2019-05-12T00:04:01.435Z,99.99
2019-05-12T00:05:01.521Z,99.99
2019-05-12T00:06:01.637Z,99.99
2019-05-12T00:07:01.700Z,99.99
2019-05-12T00:08:01.789Z,99.99
2019-05-12T00:09:01.884Z,99.99
2019-05-12T00:10:01.972Z,99.99
2019-05-12T00:11:02.062Z,99.99
2019-05-12T00:12:02.152Z,99.99
2019-05-12T00:13:02.254Z,99.99
2019-05-12T00:14:02.326Z,99.99
2019-05-12T00:15:02.411Z,99.99
2019-05-12T00:16:02.501Z,99.99
2019-05-12T00:17:02.590Z,99.99
2019-05-12T00:18:02.681Z,99.99
2019-05-12T00:19:02.795Z,99.99
2019-05-12T00:20:02.859Z,99.99
2019-05-12T00:21:02.949Z,99.99
2019-05-12T00:22:03.035Z,99.99
2019-05-12T00:23:03.120Z,99.99
2019-05-12T00:24:03.225Z,99.99
2019-05-12T00:25:03.301Z,99.99
2019-05-12T00:26:03.392Z,99.99
2019-05-12T00:27:03.482Z,99.99
2019-05-12T00:28:03.573Z,99.99
2019-05-12T00:29:03.658Z,99.99
2019-05-12T00:30:03.759Z,99.99
2019-05-12T00:31:03.854Z,99.99
2019-05-12T00:32:03.940Z,99.99
2019-05-12T00:33:04.028Z,99.99
2019-05-12T00:34:04.115Z,99.99
2019-05-12T00:35:04.213Z,99.99
2019-05-12T00:36:04.308Z,99.99
2019-05-12T00:37:04.396Z,99.99
2019-05-12T00:38:04.488Z,99.99
2019-05-12T00:39:04.574Z,99.99
2019-05-12T00:40:04.669Z,99.99
2019-05-12T00:41:04.755Z,99.99
2019-05-12T00:42:04.845Z,99.99
2019-05-12T00:43:04.937Z,99.99
2019-05-12T00:44:05.027Z,99.99
2019-05-12T00:45:05.118Z,99.99
2019-05-12T00:46:05.205Z,99.99
2019-05-12T00:47:05.296Z,99.99
2019-05-12T00:48:05.386Z,99.99
2019-05-12T00:49:07.813Z,99.99
2019-05-12T00:50:07.831Z,99.99
2019-05-12T00:51:07.608Z,99.99
2019-05-12T00:52:07.943Z,99.99
2019-05-12T00:53:08.613Z,99.99
2019-05-12T00:54:05.933Z,99.99
2019-05-12T00:55:08.024Z,99.99
2019-05-12T00:56:08.329Z,99.99
2019-05-12T00:57:07.782Z,99.99
2019-05-12T00:58:08.345Z,99.99
2019-05-12T00:59:08.368Z,99.99
2019-05-12T01:00:08.687Z,99.99
2019-05-12T01:01:08.129Z,99.99
2019-05-12T01:02:07.976Z,99.99
2019-05-12T01:03:08.698Z,99.99
2019-05-12T01:04:08.795Z,99.99
2019-05-12T01:05:08.558Z,99.99
2019-05-12T01:06:08.373Z,99.99
2019-05-12T01:07:08.641Z,99.99
2019-05-12T01:08:09.153Z,99.99
2019-05-12T01:09:08.854Z,99.99
2019-05-12T01:10:08.651Z,99.99
2019-05-12T01:11:08.756Z,99.99
2019-05-12T01:12:07.930Z,99.99
2019-05-12T01:13:08.542Z,99.99
2019-05-12T01:14:08.561Z,99.99
2019-05-12T01:15:07.840Z,99.99
2019-05-12T01:16:08.196Z,99.99
2019-05-12T01:17:08.440Z,99.99
2019-05-12T01:18:09.243Z,99.99
2019-05-12T01:19:08.327Z,99.99
2019-05-12T01:20:08.843Z,99.99
2019-05-12T01:21:08.382Z,99.99
2019-05-12T01:22:08.471Z,99.99
2019-05-12T01:23:08.984Z,99.99
2019-05-12T01:24:09.149Z,99.99
2019-05-12T01:25:08.900Z,99.99
2019-05-12T01:26:08.931Z,99.99
2019-05-12T01:27:08.983Z,99.99
2019-05-12T01:28:09.080Z,99.99
2019-05-12T01:29:09.164Z,99.99
2019-05-12T01:30:09.255Z,99.99
2019-05-12T01:31:09.348Z,99.99
2019-05-12T01:32:09.437Z,99.99
2019-05-12T01:33:09.524Z,99.99
2019-05-12T01:34:09.615Z,99.99
2019-05-12T01:35:09.708Z,99.99
2019-05-12T01:36:09.795Z,99.99
2019-05-12T01:37:09.890Z,99.99
2019-05-12T01:38:09.974Z,99.99
2019-05-12T01:39:10.068Z,99.99
2019-05-12T01:40:10.147Z,99.99
2019-05-12T01:41:10.234Z,99.99
2019-05-12T01:42:10.328Z,99.99
2019-05-12T01:43:10.411Z,99.99
2019-05-12T01:44:10.501Z,99.99
2019-05-12T01:45:10.593Z,99.99
2019-05-12T01:46:10.681Z,99.99
2019-05-12T01:47:10.770Z,99.99
2019-05-12T01:48:10.862Z,99.99
2019-05-12T01:49:10.953Z,99.99
2019-05-12T01:50:11.041Z,99.99
2019-05-12T01:51:11.131Z,99.99
2019-05-12T01:52:11.221Z,99.99
2019-05-12T01:53:11.310Z,99.99
2019-05-12T01:54:14.839Z,99.99
2019-05-12T01:55:11.487Z,99.99
2019-05-12T01:56:11.586Z,99.99
2019-05-12T01:57:11.674Z,99.99
2019-05-12T01:58:11.766Z,99.99
2019-05-12T01:59:11.856Z,99.99
2019-05-12T02:00:11.942Z,99.99
2019-05-12T02:01:12.020Z,99.99
2019-05-12T02:02:12.107Z,99.99
2019-05-12T02:03:12.197Z,99.99
2019-05-12T02:04:12.287Z,99.99
2019-05-12T02:05:12.374Z,99.99
2019-05-12T02:06:12.466Z,99.99
2019-05-12T02:07:12.560Z,99.99
2019-05-12T02:08:12.656Z,99.99
2019-05-12T02:09:12.733Z,99.99
2019-05-12T02:10:12.823Z,99.99
2019-05-12T02:11:12.915Z,99.99
2019-05-12T02:12:13.003Z,99.99
2019-05-12T02:13:13.111Z,99.99
2019-05-12T02:14:13.209Z,99.99
2019-05-12T02:15:13.288Z,99.99
2019-05-12T02:16:13.384Z,99.99
2019-05-12T02:17:13.475Z,99.99
2019-05-12T02:18:13.564Z,99.99
2019-05-12T02:19:13.651Z,99.99
2019-05-12T02:20:13.739Z,99.99
2019-05-12T02:21:13.834Z,99.99
2019-05-12T02:22:13.922Z,99.99
2019-05-12T02:23:14.014Z,99.99
2019-05-12T02:24:26.388Z,99.99
2019-05-12T02:25:14.191Z,99.99
2019-05-12T02:26:14.269Z,99.99
2019-05-12T02:27:14.364Z,99.99
2019-05-12T02:28:14.448Z,99.99
2019-05-12T02:29:14.536Z,99.99
2019-05-12T02:30:14.625Z,99.99
2019-05-12T02:31:14.715Z,99.99
2019-05-12T02:32:14.806Z,99.99
2019-05-12T02:33:15.916Z,99.99
2019-05-12T02:34:15.887Z,99.99
2019-05-12T02:35:16.072Z,99.99
2019-05-12T02:36:15.367Z,99.99
2019-05-12T02:37:15.487Z,99.99
2019-05-12T02:38:15.358Z,99.99
2019-05-12T02:39:15.450Z,99.99
2019-05-12T02:40:15.555Z,99.99
2019-05-12T02:41:15.824Z,99.99
2019-05-12T02:42:15.830Z,99.99
2019-05-12T02:43:15.808Z,99.99
2019-05-12T02:44:15.903Z,99.99
2019-05-12T02:45:15.984Z,99.99
2019-05-12T02:46:16.072Z,99.99
2019-05-12T02:47:16.293Z,99.99
2019-05-12T02:48:16.253Z,99.99
2019-05-12T02:49:16.345Z,99.99
2019-05-12T02:50:16.433Z,99.99
2019-05-12T02:51:16.525Z,99.99
2019-05-12T02:52:16.601Z,99.99
2019-05-12T02:53:16.690Z,99.99
2019-05-12T02:54:16.786Z,99.99
2019-05-12T02:55:16.859Z,99.99
2019-05-12T02:56:16.959Z,99.99
2019-05-12T02:57:17.025Z,99.99
2019-05-12T02:58:17.147Z,99.99
2019-05-12T02:59:17.201Z,99.99
2019-05-12T03:00:17.291Z,99.99
2019-05-12T03:01:17.381Z,99.99
2019-05-12T03:02:17.473Z,99.99
2019-05-12T03:03:17.573Z,99.99
2019-05-12T03:04:17.651Z,99.99
2019-05-12T03:05:17.744Z,99.99
2019-05-12T03:06:17.830Z,99.99
2019-05-12T03:07:17.920Z,99.99
2019-05-12T03:08:18.008Z,99.99
2019-05-12T03:09:18.111Z,99.99
2019-05-12T03:10:18.203Z,99.99
2019-05-12T03:11:18.289Z,99.99
2019-05-12T03:12:18.383Z,99.99
2019-05-12T03:13:18.471Z,99.99
2019-05-12T03:14:18.561Z,99.99
2019-05-12T03:15:18.649Z,99.99
2019-05-12T03:16:18.740Z,99.99
2019-05-12T03:17:18.825Z,99.99
2019-05-12T03:18:18.924Z,99.99
2019-05-12T03:19:19.002Z,99.99
2019-05-12T03:20:19.095Z,99.99
2019-05-12T03:21:19.183Z,99.99
2019-05-12T03:22:19.267Z,99.99
2019-05-12T03:23:19.775Z,99.99
2019-05-12T03:24:19.445Z,99.99
2019-05-12T03:25:24.659Z,99.99
2019-05-12T03:26:19.628Z,99.99
2019-05-12T03:27:19.721Z,99.99
2019-05-12T03:28:19.809Z,99.99
2019-05-12T03:29:19.895Z,99.99
2019-05-12T03:30:29.716Z,99.99
2019-05-12T03:31:25.026Z,99.99
2019-05-12T03:32:20.202Z,99.99
2019-05-12T03:33:20.665Z,99.99
2019-05-12T03:34:20.966Z,99.99
2019-05-12T03:35:20.480Z,99.99
2019-05-12T03:36:20.570Z,99.99
2019-05-12T03:37:20.632Z,99.99
2019-05-12T03:38:20.719Z,99.99
2019-05-12T03:39:20.821Z,99.99
2019-05-12T03:40:20.904Z,99.99
2019-05-12T03:41:20.991Z,99.99
2019-05-12T03:42:21.081Z,99.99
2019-05-12T03:43:24.170Z,99.99
2019-05-12T03:44:21.256Z,99.99
2019-05-12T03:45:21.346Z,99.99
2019-05-12T03:46:24.540Z,99.99
2019-05-12T03:47:24.754Z,99.99
2019-05-12T03:48:21.614Z,99.99
2019-05-12T03:49:24.334Z,99.99
2019-05-12T03:50:24.366Z,99.99
2019-05-12T03:51:25.037Z,99.99
2019-05-12T03:52:24.345Z,99.99
2019-05-12T03:53:24.695Z,99.99
2019-05-12T03:54:24.381Z,99.99
2019-05-12T03:55:34.262Z,99.99
2019-05-12T03:56:25.559Z,99.99
2019-05-12T03:57:25.220Z,99.99
2019-05-12T03:58:25.318Z,99.99
2019-05-12T03:59:25.339Z,99.99
2019-05-12T04:00:24.776Z,99.99
2019-05-12T04:01:25.454Z,99.99
2019-05-12T04:02:25.145Z,99.99
2019-05-12T04:03:24.671Z,99.99
2019-05-12T04:04:24.481Z,99.99
2019-05-12T04:05:24.341Z,99.99
2019-05-12T04:06:24.450Z,99.99
2019-05-12T04:07:24.311Z,99.99
2019-05-12T04:08:24.575Z,99.99
2019-05-12T04:09:24.571Z,99.99
2019-05-12T04:10:24.733Z,99.99
2019-05-12T04:11:25.001Z,99.99
2019-05-12T04:12:25.493Z,99.99
2019-05-12T04:13:26.499Z,99.99
2019-05-12T04:14:25.240Z,99.99
2019-05-12T04:15:25.538Z,99.99
2019-05-12T04:16:24.869Z,99.99
2019-05-12T04:17:24.511Z,99.99
2019-05-12T04:18:24.813Z,99.99
2019-05-12T04:19:25.074Z,99.99
2019-05-12T04:20:25.489Z,99.99
2019-05-12T04:21:24.727Z,99.99
2019-05-12T04:22:25.059Z,99.99
2019-05-12T04:23:25.121Z,99.99
2019-05-12T04:24:25.156Z,99.99
2019-05-12T04:25:25.248Z,99.99
2019-05-12T04:26:25.521Z,99.99
2019-05-12T04:27:25.435Z,99.99
2019-05-12T04:28:25.228Z,99.99
2019-05-12T04:29:25.313Z,99.99
2019-05-12T04:30:25.424Z,99.99
2019-05-12T04:31:25.493Z,99.99
2019-05-12T04:32:25.579Z,99.99
2019-05-12T04:33:25.928Z,99.99
2019-05-12T04:34:25.762Z,99.99
2019-05-12T04:35:25.851Z,99.99
2019-05-12T04:36:25.936Z,99.99
2019-05-12T04:37:26.027Z,99.99
2019-05-12T04:38:26.116Z,99.99
2019-05-12T04:39:26.218Z,99.99
2019-05-12T04:40:26.313Z,99.99
2019-05-12T04:41:26.442Z,99.99
2019-05-12T04:42:26.486Z,99.99
2019-05-12T04:43:26.574Z,99.99
2019-05-12T04:44:26.663Z,99.99
2019-05-12T04:45:26.751Z,99.99
2019-05-12T04:46:26.840Z,99.99
2019-05-12T04:47:26.931Z,99.99
2019-05-12T04:48:27.024Z,99.99
2019-05-12T04:49:27.112Z,99.99
2019-05-12T04:50:27.201Z,99.99
2019-05-12T04:51:27.292Z,99.55
2019-05-12T04:52:27.378Z,99.64
2019-05-12T04:53:27.475Z,98.97
2019-05-12T04:54:27.556Z,96.98
2019-05-12T04:55:27.645Z,97.17
2019-05-12T04:56:27.738Z,97.93
2019-05-12T04:57:27.829Z,97.74
2019-05-12T04:58:27.913Z,97.83
2019-05-12T04:59:28.003Z,98.03
2019-05-12T05:00:28.095Z,97.74
2019-05-12T05:01:28.183Z,98.12
2019-05-12T05:02:28.272Z,98.60
2019-05-12T05:03:28.359Z,98.60
2019-05-12T05:04:28.454Z,97.83
2019-05-12T05:05:28.540Z,96.50
2019-05-12T05:06:28.628Z,96.12
2019-05-12T05:07:28.718Z,95.94
2019-05-12T05:08:28.809Z,96.03
2019-05-12T05:09:28.897Z,96.89
2019-05-12T05:10:28.990Z,96.79
2019-05-12T05:11:29.078Z,96.22
2019-05-12T05:12:29.169Z,95.56
2019-05-12T05:13:29.260Z,96.31
2019-05-12T05:14:29.359Z,96.22
2019-05-12T05:15:29.438Z,96.22
2019-05-12T05:16:29.529Z,96.50
2019-05-12T05:17:29.618Z,96.79
2019-05-12T05:18:29.711Z,96.41
2019-05-12T05:19:29.795Z,96.79
2019-05-12T05:20:29.886Z,95.75
2019-05-12T05:21:29.977Z,95.79
2019-05-12T05:22:30.065Z,95.22
2019-05-12T05:23:30.154Z,94.70
2019-05-12T05:24:30.246Z,94.89
2019-05-12T05:25:30.336Z,94.89
2019-05-12T05:26:33.882Z,95.17
2019-05-12T05:27:30.513Z,94.22
2019-05-12T05:28:30.602Z,94.03
2019-05-12T05:29:30.714Z,94.98
2019-05-12T05:30:30.807Z,94.70
2019-05-12T05:31:30.891Z,94.98
2019-05-12T05:32:30.982Z,95.08
2019-05-12T05:33:31.073Z,95.84
2019-05-12T05:34:31.155Z,95.65
2019-05-12T05:35:35.085Z,95.36
2019-05-12T05:36:31.333Z,95.46
2019-05-12T05:37:39.571Z,95.46
2019-05-12T05:38:31.511Z,94.79
2019-05-12T05:39:35.715Z,94.98
2019-05-12T05:40:31.689Z,95.03
2019-05-12T05:41:31.775Z,94.79
2019-05-12T05:42:33.354Z,94.13
2019-05-12T05:43:33.318Z,93.70
2019-05-12T05:44:34.806Z,93.41
2019-05-12T05:45:34.698Z,93.46
2019-05-12T05:46:33.659Z,93.84
2019-05-12T05:47:33.630Z,94.22
2019-05-12T05:48:35.084Z,94.18
2019-05-12T05:49:34.090Z,93.94
2019-05-12T05:50:34.279Z,93.65
2019-05-12T05:51:33.432Z,93.27
2019-05-12T05:52:37.371Z,93.65
2019-05-12T05:53:33.548Z,94.13
2019-05-12T05:54:35.811Z,93.70
2019-05-12T05:55:34.437Z,93.41
2019-05-12T05:56:42.305Z,93.55
2019-05-12T05:57:33.669Z,93.08
2019-05-12T05:58:33.964Z,93.27
2019-05-12T05:59:36.746Z,93.27
2019-05-12T06:00:35.174Z,92.61
2019-05-12T06:01:34.741Z,92.80
2019-05-12T06:02:40.106Z,92.89
2019-05-12T06:03:33.986Z,92.61
2019-05-12T06:04:34.272Z,92.75
2019-05-12T06:05:35.404Z,91.56
2019-05-12T06:06:34.293Z,91.08
2019-05-12T06:07:38.779Z,91.08
2019-05-12T06:08:34.188Z,91.89
2019-05-12T06:09:34.278Z,90.70
2019-05-12T06:10:36.155Z,91.03
2019-05-12T06:11:34.672Z,91.51
2019-05-12T06:12:34.542Z,91.51
2019-05-12T06:13:34.693Z,91.32
2019-05-12T06:14:34.718Z,90.80
2019-05-12T06:15:40.395Z,90.32
2019-05-12T06:16:34.924Z,90.22
2019-05-12T06:17:35.009Z,89.75
2019-05-12T06:18:35.097Z,89.37
2019-05-12T06:19:35.208Z,88.04
2019-05-12T06:20:37.935Z,85.56
2019-05-12T06:21:38.143Z,84.99
2019-05-12T06:22:35.486Z,84.99
2019-05-12T06:23:39.166Z,85.08
2019-05-12T06:24:35.664Z,86.04
2019-05-12T06:25:46.136Z,84.99
2019-05-12T06:26:36.030Z,85.28
2019-05-12T06:27:36.168Z,84.80
2019-05-12T06:28:39.490Z,84.99
2019-05-12T06:29:36.112Z,84.13
2019-05-12T06:30:44.393Z,84.23
2019-05-12T06:31:36.295Z,84.76
2019-05-12T06:32:36.385Z,85.42
2019-05-12T06:33:36.530Z,86.47
2019-05-12T06:34:36.563Z,87.08
2019-05-12T06:35:42.140Z,85.08
2019-05-12T06:36:36.744Z,85.47
2019-05-12T06:37:36.835Z,84.61
2019-05-12T06:38:40.381Z,83.75
2019-05-12T06:39:37.037Z,83.85
2019-05-12T06:40:41.262Z,84.56
2019-05-12T06:41:37.215Z,84.17
2019-05-12T06:42:37.305Z,81.60
2019-05-12T06:43:40.684Z,81.51
2019-05-12T06:44:37.487Z,81.03
2019-05-12T06:45:42.640Z,81.70
2019-05-12T06:46:37.661Z,82.31
2019-05-12T06:47:39.388Z,82.21
2019-05-12T06:48:37.841Z,81.21
2019-05-12T06:49:37.933Z,79.49
2019-05-12T06:50:39.378Z,77.93
2019-05-12T06:51:38.108Z,78.25
2019-05-12T06:52:38.668Z,79.02
2019-05-12T06:53:38.294Z,78.92
2019-05-12T06:54:44.620Z,77.45
2019-05-12T06:55:39.282Z,77.64
2019-05-12T06:56:38.572Z,78.22
2019-05-12T06:57:40.005Z,79.36
2019-05-12T06:58:38.776Z,78.31
2019-05-12T06:59:41.902Z,77.89
2019-05-12T07:00:38.959Z,79.60
2019-05-12T07:01:39.055Z,80.98
2019-05-12T07:02:49.213Z,80.79
2019-05-12T07:03:39.234Z,79.78
2019-05-12T07:04:41.311Z,78.25
2019-05-12T07:05:42.484Z,76.79
2019-05-12T07:06:39.514Z,76.69
2019-05-12T07:07:45.905Z,77.45
2019-05-12T07:08:39.696Z,76.79
2019-05-12T07:09:50.126Z,76.59
2019-05-12T07:10:44.269Z,77.61
2019-05-12T07:11:45.119Z,77.55
2019-05-12T07:12:55.174Z,77.83
2019-05-12T07:13:40.148Z,77.36
2019-05-12T07:14:40.241Z,76.46
2019-05-12T07:15:40.736Z,77.74
2019-05-12T07:16:40.429Z,78.12
2019-05-12T07:17:43.741Z,77.55
2019-05-12T07:18:40.609Z,77.36
2019-05-12T07:19:40.700Z,76.79
2019-05-12T07:20:40.793Z,76.79
2019-05-12T07:21:40.889Z,76.69
2019-05-12T07:22:44.539Z,76.40
2019-05-12T07:23:41.077Z,77.64
2019-05-12T07:24:49.860Z,76.12
2019-05-12T07:25:41.254Z,76.84
2019-05-12T07:26:41.346Z,78.31
2019-05-12T07:27:45.599Z,76.94
2019-05-12T07:28:43.359Z,77.42
2019-05-12T07:29:43.511Z,77.89
2019-05-12T07:30:43.887Z,77.95
2019-05-12T07:31:44.103Z,77.66
2019-05-12T07:32:43.336Z,77.98
2019-05-12T07:33:45.527Z,77.61
2019-05-12T07:34:43.734Z,77.61
2019-05-12T07:35:44.300Z,77.42
2019-05-12T07:36:44.201Z,78.65
2019-05-12T07:37:43.650Z,79.13
2019-05-12T07:38:43.440Z,79.03
2019-05-12T07:39:45.382Z,78.27
2019-05-12T07:40:44.401Z,78.46
2019-05-12T07:41:50.922Z,78.17
2019-05-12T07:42:43.841Z,78.56
2019-05-12T07:43:44.298Z,78.42
2019-05-12T07:44:44.097Z,79.19
2019-05-12T07:45:44.142Z,80.33
2019-05-12T07:46:45.691Z,80.71
2019-05-12T07:47:44.941Z,80.90
2019-05-12T07:48:49.028Z,80.94
2019-05-12T07:49:44.101Z,78.42
2019-05-12T07:50:43.569Z,79.32
2019-05-12T07:51:44.625Z,78.08
2019-05-12T07:52:44.268Z,77.00
2019-05-12T07:53:46.973Z,77.22
2019-05-12T07:54:44.477Z,77.26
2019-05-12T07:55:47.575Z,76.75
2019-05-12T07:56:44.415Z,74.75
2019-05-12T07:57:52.859Z,75.13
2019-05-12T07:58:49.084Z,74.46
2019-05-12T07:59:44.385Z,75.42
2019-05-12T08:00:44.516Z,76.84
2019-05-12T08:01:51.743Z,76.65
2019-05-12T08:02:44.658Z,75.13
2019-05-12T08:03:44.757Z,75.04
2019-05-12T08:04:44.839Z,75.74
2019-05-12T08:05:44.930Z,76.12
2019-05-12T08:06:46.643Z,75.07
2019-05-12T08:07:45.118Z,73.11
2019-05-12T08:08:50.483Z,73.11
2019-05-12T08:09:45.314Z,72.50
2019-05-12T08:10:45.406Z,73.01
2019-05-12T08:11:45.486Z,73.21
2019-05-12T08:12:45.576Z,71.87
2019-05-12T08:13:45.683Z,71.30
2019-05-12T08:14:45.759Z,70.67
2019-05-12T08:15:50.189Z,70.47
2019-05-12T08:16:45.947Z,70.86
2019-05-12T08:17:49.195Z,70.38
2019-05-12T08:18:46.131Z,71.72
2019-05-12T08:19:46.222Z,72.38
2019-05-12T08:20:46.313Z,72.51
2019-05-12T08:21:48.950Z,70.95
2019-05-12T08:22:46.496Z,70.95
2019-05-12T08:23:46.588Z,71.72
2019-05-12T08:24:48.210Z,72.76
2019-05-12T08:25:46.790Z,72.67
2019-05-12T08:26:49.685Z,71.62
2019-05-12T08:27:50.224Z,72.57
2019-05-12T08:28:47.067Z,72.57
2019-05-12T08:29:54.484Z,71.14
2019-05-12T08:30:51.972Z,69.96
2019-05-12T08:31:47.339Z,70.57
2019-05-12T08:32:47.430Z,70.63
2019-05-12T08:33:47.528Z,70.44
2019-05-12T08:34:47.621Z,70.00
2019-05-12T08:35:47.711Z,69.77
2019-05-12T08:36:53.065Z,69.87
2019-05-12T08:37:47.891Z,68.18
2019-05-12T08:38:47.983Z,69.14
2019-05-12T08:39:53.386Z,68.32
2019-05-12T08:40:50.888Z,67.83
2019-05-12T08:41:48.263Z,67.74
2019-05-12T08:42:48.355Z,66.12
2019-05-12T08:43:54.459Z,67.01
2019-05-12T08:44:48.541Z,66.82
2019-05-12T08:45:48.632Z,68.38
2019-05-12T08:46:52.075Z,68.16
2019-05-12T08:47:48.821Z,67.55
2019-05-12T08:48:51.430Z,67.17
2019-05-12T08:49:55.183Z,68.09
2019-05-12T08:50:49.100Z,69.04
2019-05-12T08:51:49.480Z,70.00
2019-05-12T08:52:49.302Z,70.72
2019-05-12T08:53:56.159Z,70.06
2019-05-12T08:54:49.571Z,70.44
2019-05-12T08:55:49.584Z,70.31
2019-05-12T08:56:51.130Z,70.50
2019-05-12T08:57:49.835Z,70.59
2019-05-12T08:58:51.349Z,69.74
2019-05-12T08:59:54.645Z,71.01
2019-05-12T09:00:50.646Z,71.30
2019-05-12T09:01:50.163Z,70.72
2019-05-12T09:02:50.657Z,70.95
2019-05-12T09:03:50.350Z,70.57
2019-05-12T09:04:51.596Z,69.93
2019-05-12T09:05:50.535Z,67.27
2019-05-12T09:06:56.415Z,66.12
2019-05-12T09:07:50.715Z,67.01
2019-05-12T09:08:50.819Z,67.58
2019-05-12T09:09:53.217Z,66.56
2019-05-12T09:10:54.675Z,65.42
2019-05-12T09:11:51.095Z,64.47
2019-05-12T09:12:51.175Z,63.32
2019-05-12T09:13:52.483Z,62.75
2019-05-12T09:14:54.449Z,61.98
2019-05-12T09:15:51.468Z,61.29
2019-05-12T09:16:53.685Z,61.66
2019-05-12T09:17:56.638Z,62.30
2019-05-12T09:18:51.754Z,64.21
2019-05-12T09:19:55.079Z,64.88
2019-05-12T09:20:55.131Z,65.17
2019-05-12T09:21:54.119Z,65.55
2019-05-12T09:23:00.250Z,64.40
2019-05-12T09:23:55.593Z,64.59
2019-05-12T09:24:53.393Z,65.55
2019-05-12T09:25:53.723Z,64.09
2019-05-12T09:26:53.818Z,63.54
2019-05-12T09:27:54.224Z,63.80
2019-05-12T09:28:54.265Z,61.83
2019-05-12T09:29:54.007Z,61.73
2019-05-12T09:30:54.322Z,61.35
2019-05-12T09:31:53.231Z,61.07
2019-05-12T09:32:55.939Z,59.34
2019-05-12T09:33:54.679Z,59.47
2019-05-12T09:34:58.076Z,60.33
2019-05-12T09:35:54.094Z,59.95
2019-05-12T09:36:59.528Z,60.14
2019-05-12T09:37:53.622Z,61.13
2019-05-12T09:39:01.281Z,62.55
2019-05-12T09:39:53.881Z,62.84
2019-05-12T09:41:00.692Z,62.11
2019-05-12T09:41:55.299Z,60.84
2019-05-12T09:42:53.967Z,61.16
2019-05-12T09:43:54.057Z,60.39
2019-05-12T09:44:54.174Z,59.05
2019-05-12T09:46:04.195Z,59.24
2019-05-12T09:46:54.368Z,59.41
2019-05-12T09:47:58.919Z,58.61
2019-05-12T09:48:55.153Z,61.16
2019-05-12T09:49:54.645Z,61.92
2019-05-12T09:51:00.457Z,60.87
2019-05-12T09:51:54.831Z,60.11
2019-05-12T09:52:55.581Z,60.49
2019-05-12T09:53:55.629Z,60.49
2019-05-12T09:54:55.110Z,59.16
2019-05-12T09:55:58.259Z,58.01
2019-05-12T09:56:59.356Z,57.46
2019-05-12T09:57:55.404Z,58.29
2019-05-12T09:59:01.600Z,59.19
2019-05-12T09:59:59.513Z,60.42
2019-05-12T10:00:55.672Z,61.89
2019-05-12T10:01:55.756Z,61.32
2019-05-12T10:02:59.356Z,61.13
2019-05-12T10:03:55.940Z,61.69
2019-05-12T10:05:00.577Z,61.06
2019-05-12T10:05:56.117Z,58.83
2019-05-12T10:06:56.236Z,58.42
2019-05-12T10:07:56.310Z,58.77
2019-05-12T10:08:56.403Z,59.34
2019-05-12T10:09:58.908Z,61.25
2019-05-12T10:10:56.583Z,60.21
2019-05-12T10:12:00.509Z,60.49
2019-05-12T10:12:56.769Z,60.58
2019-05-12T10:14:00.410Z,59.25
2019-05-12T10:14:56.955Z,58.90
2019-05-12T10:15:58.658Z,60.04
2019-05-12T10:16:57.162Z,61.32
2019-05-12T10:18:00.146Z,61.03
2019-05-12T10:18:57.346Z,59.78
2019-05-12T10:19:58.277Z,60.07
2019-05-12T10:20:57.529Z,61.51
2019-05-12T10:21:59.490Z,61.06
2019-05-12T10:22:57.725Z,59.05
2019-05-12T10:24:01.770Z,59.44
2019-05-12T10:24:58.729Z,57.93
2019-05-12T10:26:01.581Z,57.93
2019-05-12T10:26:58.084Z,56.50
2019-05-12T10:28:04.260Z,56.69
2019-05-12T10:29:02.653Z,56.02
2019-05-12T10:30:03.307Z,55.45
2019-05-12T10:30:58.475Z,55.26
2019-05-12T10:31:58.567Z,55.23
2019-05-12T10:32:58.659Z,55.45
2019-05-12T10:33:58.754Z,56.50
2019-05-12T10:34:58.849Z,56.79
2019-05-12T10:35:59.346Z,56.28
2019-05-12T10:36:59.026Z,56.09
2019-05-12T10:38:00.149Z,55.90
2019-05-12T10:38:59.215Z,56.28
2019-05-12T10:39:59.305Z,55.90
2019-05-12T10:40:59.398Z,57.02
2019-05-12T10:41:59.491Z,57.87
2019-05-12T10:42:59.586Z,58.36
2019-05-12T10:43:59.678Z,59.22
2019-05-12T10:44:59.777Z,59.50
2019-05-12T10:45:59.866Z,59.50
2019-05-12T10:46:59.962Z,58.83
2019-05-12T10:48:00.052Z,59.34
2019-05-12T10:49:00.148Z,58.00
2019-05-12T10:50:00.240Z,57.84
2019-05-12T10:51:00.333Z,56.98
2019-05-12T10:52:00.427Z,56.62
2019-05-12T10:53:00.525Z,55.45
2019-05-12T10:54:09.347Z,54.97
2019-05-12T10:55:00.705Z,55.19
2019-05-12T10:56:00.803Z,54.52
2019-05-12T10:57:00.897Z,55.00
2019-05-12T10:58:01.781Z,54.78
2019-05-12T10:59:01.083Z,53.63
2019-05-12T11:00:01.176Z,54.47
2019-05-12T11:01:05.368Z,56.21
2019-05-12T11:02:03.374Z,57.07
2019-05-12T11:03:06.614Z,55.83
2019-05-12T11:04:03.840Z,55.29
2019-05-12T11:05:01.648Z,54.39
2019-05-12T11:06:03.177Z,55.26
2019-05-12T11:07:04.496Z,54.75
2019-05-12T11:08:08.631Z,55.61
2019-05-12T11:09:03.788Z,57.24
2019-05-12T11:10:11.707Z,56.31
2019-05-12T11:11:04.202Z,55.93
2019-05-12T11:12:03.436Z,56.34
2019-05-12T11:13:08.406Z,56.21
2019-05-12T11:14:03.939Z,56.12
2019-05-12T11:15:06.683Z,55.26
2019-05-12T11:16:03.847Z,56.31
2019-05-12T11:17:07.723Z,56.12
2019-05-12T11:18:02.871Z,56.18
2019-05-12T11:19:06.375Z,56.67
2019-05-12T11:20:04.099Z,56.12
2019-05-12T11:21:03.580Z,55.04
2019-05-12T11:22:03.648Z,55.35
2019-05-12T11:23:03.739Z,54.59
2019-05-12T11:24:03.824Z,54.30
2019-05-12T11:25:04.370Z,54.30
2019-05-12T11:26:03.990Z,54.21
2019-05-12T11:27:04.191Z,54.21
2019-05-12T11:28:03.995Z,53.25
2019-05-12T11:29:03.909Z,52.10
2019-05-12T11:30:04.391Z,52.87
2019-05-12T11:31:04.113Z,53.73
2019-05-12T11:32:04.187Z,54.39
2019-05-12T11:33:04.721Z,53.37
2019-05-12T11:34:04.904Z,53.56
2019-05-12T11:35:04.489Z,53.18
2019-05-12T11:36:04.567Z,52.58
2019-05-12T11:37:04.658Z,52.10
2019-05-12T11:38:04.861Z,52.51
2019-05-12T11:39:04.845Z,53.28
2019-05-12T11:40:04.934Z,52.42
2019-05-12T11:41:10.062Z,51.91
2019-05-12T11:42:05.132Z,53.73
2019-05-12T11:43:05.224Z,55.57
2019-05-12T11:44:05.329Z,55.86
2019-05-12T11:45:05.415Z,55.38
2019-05-12T11:46:05.500Z,55.00
2019-05-12T11:48:50.323Z,55.19
2019-05-12T11:49:48.261Z,53.56
2019-05-12T11:50:51.251Z,52.10
2019-05-12T11:51:48.419Z,52.87
2019-05-12T11:52:51.038Z,53.37
2019-05-12T11:53:48.624Z,52.13
2019-05-12T11:54:51.149Z,50.41
2019-05-12T11:55:48.794Z,51.27
2019-05-12T11:56:50.371Z,51.65
2019-05-12T11:57:48.984Z,51.07
2019-05-12T11:58:51.467Z,50.60
2019-05-12T11:59:59.133Z,51.17
2019-05-12T12:00:49.267Z,52.42
2019-05-12T12:01:51.473Z,52.34
2019-05-12T12:02:49.453Z,51.10
2019-05-12T12:03:49.547Z,49.95
2019-05-12T12:04:49.641Z,49.38
2019-05-12T12:05:49.734Z,50.52
2019-05-12T12:06:49.837Z,50.41
2019-05-12T12:07:52.756Z,49.35
2019-05-12T12:08:50.059Z,49.48
2019-05-12T12:09:56.180Z,50.52
2019-05-12T12:10:50.179Z,49.29
2019-05-12T12:11:56.664Z,49.38
2019-05-12T12:12:50.375Z,50.02
2019-05-12T12:13:50.472Z,51.07
2019-05-12T12:14:50.681Z,50.98
2019-05-12T12:15:50.660Z,50.95
2019-05-12T12:16:52.371Z,51.24
2019-05-12T12:17:50.848Z,51.34
2019-05-12T12:18:59.513Z,52.10
2019-05-12T12:19:51.024Z,53.37
2019-05-12T12:20:57.177Z,53.66
2019-05-12T12:21:51.213Z,52.32
2019-05-12T12:22:51.309Z,51.91
2019-05-12T12:23:53.276Z,51.91
2019-05-12T12:24:51.496Z,52.67
2019-05-12T12:25:53.521Z,52.89
2019-05-12T12:26:53.633Z,52.80
2019-05-12T12:27:53.728Z,52.70
2019-05-12T12:28:53.746Z,51.84
2019-05-12T12:29:54.256Z,51.46
2019-05-12T12:30:56.804Z,52.70
2019-05-12T12:31:52.153Z,52.80
2019-05-12T12:32:57.184Z,50.41
2019-05-12T12:33:53.612Z,52.03
2019-05-12T12:34:54.408Z,50.60
2019-05-12T12:35:56.726Z,49.35
2019-05-12T12:36:54.448Z,49.64
2019-05-12T12:37:54.120Z,50.50
2019-05-12T12:38:53.512Z,50.98
2019-05-12T12:39:53.579Z,50.50
2019-05-12T12:40:53.561Z,51.07
2019-05-12T12:41:59.782Z,50.98
2019-05-12T12:42:53.820Z,51.24
2019-05-12T12:43:54.021Z,52.39
2019-05-12T12:44:58.140Z,52.58
2019-05-12T12:45:53.467Z,51.65
2019-05-12T12:46:59.779Z,51.05
2019-05-12T12:47:54.030Z,50.48
2019-05-12T12:48:54.216Z,50.98
2019-05-12T12:49:53.844Z,50.98
2019-05-12T12:50:53.939Z,51.39
2019-05-12T12:51:54.032Z,50.52
2019-05-12T12:52:54.127Z,50.07
2019-05-12T12:53:54.243Z,48.83
2019-05-12T12:54:54.430Z,48.28